Terminal Aerodrome Forecast
Issued by NWS

Home | Current Version | Previous Version | Text Only | Print | Product List | Glossary On
Versions: 1 2 3 4 5 6 7 8 9 10 11 12 13 14 15 16 17 18 19 20 21 22 23
000
FTUS45 KBOU 200539
TAFBJC
TAF
KBJC 200539Z 2006/2106 16006KT P6SM VCSH SCT060 BKN080
      TEMPO 2006/2008 -SHRA BKN050
     FM200800 20007KT P6SM SCT070 BKN110
     FM201000 25007KT P6SM FEW110 SCT140 BKN200
     FM201400 30007KT P6SM SCT140 BKN200
     FM201800 36010KT P6SM SCT080 SCT140
     FM202100 01010KT P6SM VCSH SCT080 BKN120=

USA.gov is the U.S. government's official web portal to all federal, state and local government web resources and services.